sensor_id;sensor_type;location;lat;lon;timestamp;pressure;altitude;pressure_sealevel;temperature;humidity
41866;BME280;27539;43.222;27.558;2022-07-01T00:00:48;100339.63;;;20.68;100.00
41866;BME280;27539;43.222;27.558;2022-07-01T00:03:13;100348.78;;;20.52;100.00
41866;BME280;27539;43.222;27.558;2022-07-01T00:05:39;100329.16;;;20.33;100.00
41866;BME280;27539;43.222;27.558;2022-07-01T00:08:05;100332.41;;;20.26;100.00
41866;BME280;27539;43.222;27.558;2022-07-01T00:10:30;100316.66;;;20.11;100.00
41866;BME280;27539;43.222;27.558;2022-07-01T00:12:56;100337.88;;;20.22;100.00
41866;BME280;27539;43.222;27.558;2022-07-01T00:15:21;100333.34;;;19.99;100.00
41866;BME280;27539;43.222;27.558;2022-07-01T00:17:48;100328.47;;;20.13;100.00
41866;BME280;27539;43.222;27.558;2022-07-01T00:20:13;100345.19;;;20.23;100.00
41866;BME280;27539;43.222;27.558;2022-07-01T00:22:40;100303.41;;;20.12;100.00
41866;BME280;27539;43.222;27.558;2022-07-01T00:25:07;100343.53;;;20.22;100.00
41866;BME280;27539;43.222;27.558;2022-07-01T00:27:36;100338.13;;;20.12;100.00
41866;BME280;27539;43.222;27.558;2022-07-01T00:30:01;100345.88;;;19.93;100.00
41866;BME280;27539;43.222;27.558;2022-07-01T00:32:27;100337.69;;;19.63;100.00
41866;BME280;27539;43.222;27.558;2022-07-01T00:34:52;100333.56;;;19.75;100.00
41866;BME280;27539;43.222;27.558;2022-07-01T00:37:18;100338.66;;;20.00;100.00
41866;BME280;27539;43.222;27.558;2022-07-01T00:39:43;100335.03;;;19.72;100.00
41866;BME280;27539;43.222;27.558;2022-07-01T00:42:09;100328.34;;;19.82;100.00
41866;BME280;27539;43.222;27.558;2022-07-01T00:44:34;100338.00;;;20.03;100.00
41866;BME280;27539;43.222;27.558;2022-07-01T00:47:03;100329.75;;;20.07;100.00
41866;BME280;27539;43.222;27.558;2022-07-01T00:49:30;100330.53;;;20.21;100.00
41866;BME280;27539;43.222;27.558;2022-07-01T00:51:56;100317.56;;;20.34;100.00
41866;BME280;27539;43.222;27.558;2022-07-01T00:54:23;100297.03;;;20.28;100.00
41866;BME280;27539;43.222;27.558;2022-07-01T00:56:48;100295.84;;;20.43;100.00
41866;BME280;27539;43.222;27.558;2022-07-01T00:59:14;100323.19;;;20.70;100.00
41866;BME280;27539;43.222;27.558;2022-07-01T01:01:40;100310.47;;;20.59;100.00
41866;BME280;27539;43.222;27.558;2022-07-01T01:04:06;100313.84;;;20.47;100.00
41866;BME280;27539;43.222;27.558;2022-07-01T01:06:33;100293.34;;;20.42;100.00
41866;BME280;27539;43.222;27.558;2022-07-01T01:08:58;100313.50;;;20.63;100.00
41866;BME280;27539;43.222;27.558;2022-07-01T01:11:24;100303.13;;;20.58;100.00
41866;BME280;27539;43.222;27.558;2022-07-01T01:13:50;100310.47;;;20.59;100.00
41866;BME280;27539;43.222;27.558;2022-07-01T01:16:19;100308.38;;;20.51;100.00
41866;BME280;27539;43.222;27.558;2022-07-01T01:18:46;100312.75;;;20.35;100.00
41866;BME280;27539;43.222;27.558;2022-07-01T01:21:11;100298.09;;;20.33;100.00
41866;BME280;27539;43.222;27.558;2022-07-01T01:23:37;100301.63;;;20.02;100.00
41866;BME280;27539;43.222;27.558;2022-07-01T01:26:03;100306.16;;;19.89;100.00
41866;BME280;27539;43.222;27.558;2022-07-01T01:28:28;100314.69;;;20.12;100.00
41866;BME280;27539;43.222;27.558;2022-07-01T01:30:54;100315.81;;;20.24;100.00
41866;BME280;27539;43.222;27.558;2022-07-01T01:33:20;100312.75;;;20.35;100.00
41866;BME280;27539;43.222;27.558;2022-07-01T01:35:46;100282.66;;;20.16;100.00
41866;BME280;27539;43.222;27.558;2022-07-01T01:38:11;100312.88;;;20.52;100.00
41866;BME280;27539;43.222;27.558;2022-07-01T01:40:37;100306.88;;;20.54;100.00
41866;BME280;27539;43.222;27.558;2022-07-01T01:43:02;100316.66;;;20.47;100.00
41866;BME280;27539;43.222;27.558;2022-07-01T01:45:28;100329.09;;;20.24;100.00
41866;BME280;27539;43.222;27.558;2022-07-01T01:47:54;100321.56;;;20.19;100.00
41866;BME280;27539;43.222;27.558;2022-07-01T01:50:19;100287.22;;;19.76;100.00
41866;BME280;27539;43.222;27.558;2022-07-01T01:52:45;100320.69;;;19.82;100.00
41866;BME280;27539;43.222;27.558;2022-07-01T01:55:11;100293.81;;;19.85;100.00
41866;BME280;27539;43.222;27.558;2022-07-01T01:57:37;100324.31;;;20.11;100.00
41866;BME280;27539;43.222;27.558;2022-07-01T02:00:05;100330.47;;;20.13;100.00
41866;BME280;27539;43.222;27.558;2022-07-01T02:02:30;100324.13;;;19.93;100.00
41866;BME280;27539;43.222;27.558;2022-07-01T02:04:56;100326.41;;;19.91;100.00
41866;BME280;27539;43.222;27.558;2022-07-01T02:07:21;100343.44;;;20.14;100.00
41866;BME280;27539;43.222;27.558;2022-07-01T02:09:47;100340.78;;;20.31;100.00
41866;BME280;27539;43.222;27.558;2022-07-01T02:12:12;100337.91;;;20.45;100.00
41866;BME280;27539;43.222;27.558;2022-07-01T02:14:38;100335.78;;;20.50;100.00
41866;BME280;27539;43.222;27.558;2022-07-01T02:17:03;100345.75;;;20.62;100.00
41866;BME280;27539;43.222;27.558;2022-07-01T02:19:29;100341.16;;;20.52;100.00
41866;BME280;27539;43.222;27.558;2022-07-01T02:21:54;100334.22;;;20.58;100.00
41866;BME280;27539;43.222;27.558;2022-07-01T02:24:20;100329.41;;;20.59;100.00
41866;BME280;27539;43.222;27.558;2022-07-01T02:26:46;100334.81;;;20.69;100.00
41866;BME280;27539;43.222;27.558;2022-07-01T02:29:12;100340.59;;;20.86;100.00
41866;BME280;27539;43.222;27.558;2022-07-01T02:31:38;100341.63;;;20.90;100.00
41866;BME280;27539;43.222;27.558;2022-07-01T02:34:03;100320.44;;;20.57;100.00
41866;BME280;27539;43.222;27.558;2022-07-01T02:36:29;100338.66;;;20.73;100.00
41866;BME280;27539;43.222;27.558;2022-07-01T02:38:54;100341.63;;;20.68;100.00
41866;BME280;27539;43.222;27.558;2022-07-01T02:41:20;100324.09;;;20.43;100.00
41866;BME280;27539;43.222;27.558;2022-07-01T02:43:45;100322.97;;;20.44;100.00
41866;BME280;27539;43.222;27.558;2022-07-01T02:46:11;100312.50;;;20.45;100.00
41866;BME280;27539;43.222;27.558;2022-07-01T02:48:36;100327.22;;;20.56;100.00
41866;BME280;27539;43.222;27.558;2022-07-01T02:51:02;100325.22;;;20.56;100.00
41866;BME280;27539;43.222;27.558;2022-07-01T02:53:27;100314.97;;;20.60;100.00
41866;BME280;27539;43.222;27.558;2022-07-01T02:55:53;100333.09;;;20.82;100.00
41866;BME280;27539;43.222;27.558;2022-07-01T02:58:18;100351.66;;;20.97;100.00
41866;BME280;27539;43.222;27.558;2022-07-01T03:00:44;100342.31;;;20.96;100.00
41866;BME280;27539;43.222;27.558;2022-07-01T03:03:09;100349.94;;;20.87;100.00
41866;BME280;27539;43.222;27.558;2022-07-01T03:08:16;100337.19;;;20.76;100.00
41866;BME280;27539;43.222;27.558;2022-07-01T03:10:42;100358.97;;;20.98;100.00
41866;BME280;27539;43.222;27.558;2022-07-01T03:13:08;100356.47;;;20.96;100.00
41866;BME280;27539;43.222;27.558;2022-07-01T03:15:33;100355.94;;;20.94;100.00
41866;BME280;27539;43.222;27.558;2022-07-01T03:17:59;100361.72;;;20.89;100.00
41866;BME280;27539;43.222;27.558;2022-07-01T03:20:24;100362.88;;;21.10;100.00
41866;BME280;27539;43.222;27.558;2022-07-01T03:22:50;100352.63;;;20.92;100.00
41866;BME280;27539;43.222;27.558;2022-07-01T03:25:16;100372.53;;;21.09;100.00
41866;BME280;27539;43.222;27.558;2022-07-01T03:27:42;100376.38;;;21.13;100.00
41866;BME280;27539;43.222;27.558;2022-07-01T03:30:11;100387.00;;;21.08;100.00
41866;BME280;27539;43.222;27.558;2022-07-01T03:32:37;100384.34;;;21.11;100.00
41866;BME280;27539;43.222;27.558;2022-07-01T03:35:03;100381.03;;;21.09;100.00
41866;BME280;27539;43.222;27.558;2022-07-01T03:37:49;100375.38;;;21.09;100.00
41866;BME280;27539;43.222;27.558;2022-07-01T03:40:15;100364.69;;;21.06;100.00
41866;BME280;27539;43.222;27.558;2022-07-01T03:42:40;100376.44;;;21.22;100.00
41866;BME280;27539;43.222;27.558;2022-07-01T03:45:06;100374.69;;;21.35;100.00
41866;BME280;27539;43.222;27.558;2022-07-01T03:47:32;100391.66;;;21.35;100.00
41866;BME280;27539;43.222;27.558;2022-07-01T03:49:57;100372.16;;;21.33;100.00
41866;BME280;27539;43.222;27.558;2022-07-01T03:52:23;100375.19;;;21.37;100.00
41866;BME280;27539;43.222;27.558;2022-07-01T03:54:48;100392.25;;;21.46;100.00
41866;BME280;27539;43.222;27.558;2022-07-01T03:57:14;100378.28;;;21.49;100.00
41866;BME280;27539;43.222;27.558;2022-07-01T03:59:40;100399.56;;;21.78;100.00
41866;BME280;27539;43.222;27.558;2022-07-01T04:02:06;100394.94;;;21.82;100.00
41866;BME280;27539;43.222;27.558;2022-07-01T04:04:32;100400.25;;;21.84;100.00
41866;BME280;27539;43.222;27.558;2022-07-01T04:07:00;100410.16;;;21.64;100.00
41866;BME280;27539;43.222;27.558;2022-07-01T04:09:26;100399.09;;;21.53;100.00
41866;BME280;27539;43.222;27.558;2022-07-01T04:11:52;100401.91;;;21.45;100.00
41866;BME280;27539;43.222;27.558;2022-07-01T04:14:18;100402.13;;;21.57;100.00
41866;BME280;27539;43.222;27.558;2022-07-01T04:16:44;100392.31;;;21.54;100.00
41866;BME280;27539;43.222;27.558;2022-07-01T04:19:11;100367.75;;;21.41;100.00
41866;BME280;27539;43.222;27.558;2022-07-01T04:21:38;100387.28;;;21.51;100.00
41866;BME280;27539;43.222;27.558;2022-07-01T04:24:21;100389.19;;;21.65;100.00
41866;BME280;27539;43.222;27.558;2022-07-01T04:26:51;100405.88;;;21.75;100.00
41866;BME280;27539;43.222;27.558;2022-07-01T04:29:17;100400.59;;;21.82;100.00
41866;BME280;27539;43.222;27.558;2022-07-01T04:31:43;100399.56;;;21.78;100.00
41866;BME280;27539;43.222;27.558;2022-07-01T04:34:09;100410.44;;;21.85;100.00
41866;BME280;27539;43.222;27.558;2022-07-01T04:36:35;100392.38;;;21.72;100.00
41866;BME280;27539;43.222;27.558;2022-07-01T04:39:02;100397.69;;;21.65;100.00
41866;BME280;27539;43.222;27.558;2022-07-01T04:41:27;100401.34;;;21.65;100.00
41866;BME280;27539;43.222;27.558;2022-07-01T04:44:11;100404.31;;;21.60;100.00
41866;BME280;27539;43.222;27.558;2022-07-01T04:46:37;100412.28;;;21.58;100.00
41866;BME280;27539;43.222;27.558;2022-07-01T04:49:02;100408.72;;;21.75;100.00
41866;BME280;27539;43.222;27.558;2022-07-01T04:51:28;100415.06;;;21.81;100.00
41866;BME280;27539;43.222;27.558;2022-07-01T04:53:54;100397.78;;;21.91;100.00
41866;BME280;27539;43.222;27.558;2022-07-01T04:56:20;100388.63;;;21.94;100.00
41866;BME280;27539;43.222;27.558;2022-07-01T04:58:46;100410.00;;;22.09;100.00
41866;BME280;27539;43.222;27.558;2022-07-01T05:01:11;100418.34;;;22.14;100.00
41866;BME280;27539;43.222;27.558;2022-07-01T05:03:37;100423.94;;;22.28;100.00
41866;BME280;27539;43.222;27.558;2022-07-01T05:06:04;100425.59;;;22.29;100.00
41866;BME280;27539;43.222;27.558;2022-07-01T05:08:29;100429.75;;;22.23;100.00
41866;BME280;27539;43.222;27.558;2022-07-01T05:10:55;100425.56;;;22.20;100.00
41866;BME280;27539;43.222;27.558;2022-07-01T05:13:20;100422.00;;;22.14;100.00
41866;BME280;27539;43.222;27.558;2022-07-01T05:15:46;100422.66;;;22.03;100.00
41866;BME280;27539;43.222;27.558;2022-07-01T05:18:11;100412.59;;;21.88;100.00
41866;BME280;27539;43.222;27.558;2022-07-01T05:20:56;100417.44;;;21.96;100.00
41866;BME280;27539;43.222;27.558;2022-07-01T05:23:40;100410.50;;;22.02;100.00
41866;BME280;27539;43.222;27.558;2022-07-01T05:26:06;100409.00;;;22.05;100.00
41866;BME280;27539;43.222;27.558;2022-07-01T05:28:32;100423.19;;;22.13;100.00
41866;BME280;27539;43.222;27.558;2022-07-01T05:30:57;100382.31;;;21.97;100.00
41866;BME280;27539;43.222;27.558;2022-07-01T05:33:23;100420.94;;;22.33;100.00
41866;BME280;27539;43.222;27.558;2022-07-01T05:35:54;100428.47;;;22.37;100.00
41866;BME280;27539;43.222;27.558;2022-07-01T05:38:19;100430.63;;;22.49;100.00
41866;BME280;27539;43.222;27.558;2022-07-01T05:40:45;100437.66;;;22.60;100.00
41866;BME280;27539;43.222;27.558;2022-07-01T05:43:10;100434.00;;;22.77;100.00
41866;BME280;27539;43.222;27.558;2022-07-01T05:45:36;100431.00;;;22.91;100.00
41866;BME280;27539;43.222;27.558;2022-07-01T05:48:02;100431.03;;;23.08;100.00
41866;BME280;27539;43.222;27.558;2022-07-01T05:50:27;100426.34;;;23.13;100.00
41866;BME280;27539;43.222;27.558;2022-07-01T05:52:53;100423.09;;;23.49;100.00
41866;BME280;27539;43.222;27.558;2022-07-01T05:55:18;100426.69;;;23.84;100.00
41866;BME280;27539;43.222;27.558;2022-07-01T05:57:44;100394.53;;;24.01;100.00
41866;BME280;27539;43.222;27.558;2022-07-01T06:00:10;100404.81;;;24.53;100.00
41866;BME280;27539;43.222;27.558;2022-07-01T06:02:36;100398.91;;;24.79;100.00
41866;BME280;27539;43.222;27.558;2022-07-01T06:05:02;100413.13;;;25.21;100.00
41866;BME280;27539;43.222;27.558;2022-07-01T06:07:28;100413.66;;;25.48;100.00
41866;BME280;27539;43.222;27.558;2022-07-01T06:09:55;100415.84;;;25.75;100.00
41866;BME280;27539;43.222;27.558;2022-07-01T06:12:20;100413.56;;;26.02;100.00
41866;BME280;27539;43.222;27.558;2022-07-01T06:14:46;100410.72;;;26.14;100.00
41866;BME280;27539;43.222;27.558;2022-07-01T06:17:11;100406.53;;;26.36;99.99
41866;BME280;27539;43.222;27.558;2022-07-01T06:19:38;100417.19;;;26.76;99.09
41866;BME280;27539;43.222;27.558;2022-07-01T06:22:04;100408.09;;;26.99;100.00
41866;BME280;27539;43.222;27.558;2022-07-01T06:24:30;100404.81;;;27.12;92.76
41866;BME280;27539;43.222;27.558;2022-07-01T06:26:55;100407.78;;;27.44;91.67
41866;BME280;27539;43.222;27.558;2022-07-01T06:29:21;100412.69;;;27.60;83.42
41866;BME280;27539;43.222;27.558;2022-07-01T06:31:46;100385.22;;;27.71;82.92
41866;BME280;27539;43.222;27.558;2022-07-01T06:34:12;100419.38;;;28.11;81.66
41866;BME280;27539;43.222;27.558;2022-07-01T06:36:37;100417.91;;;27.86;69.44
41866;BME280;27539;43.222;27.558;2022-07-01T06:39:03;100420.19;;;28.28;85.52
41866;BME280;27539;43.222;27.558;2022-07-01T06:41:28;100417.75;;;28.61;82.98
41866;BME280;27539;43.222;27.558;2022-07-01T06:43:58;100383.03;;;28.63;90.06
41866;BME280;27539;43.222;27.558;2022-07-01T06:46:25;100421.63;;;28.89;88.23
41866;BME280;27539;43.222;27.558;2022-07-01T06:48:50;100422.63;;;28.61;85.58
41866;BME280;27539;43.222;27.558;2022-07-01T06:51:16;100413.81;;;28.50;89.88
41866;BME280;27539;43.222;27.558;2022-07-01T06:53:42;100413.06;;;28.37;89.00
41866;BME280;27539;43.222;27.558;2022-07-01T06:56:13;100398.75;;;28.53;88.86
41866;BME280;27539;43.222;27.558;2022-07-01T06:58:39;100386.72;;;28.63;85.95
41866;BME280;27539;43.222;27.558;2022-07-01T07:01:05;100407.81;;;28.23;84.85
41866;BME280;27539;43.222;27.558;2022-07-01T07:03:30;100404.97;;;28.39;92.32
41866;BME280;27539;43.222;27.558;2022-07-01T07:05:57;100407.84;;;28.75;87.45
41866;BME280;27539;43.222;27.558;2022-07-01T07:08:24;100372.34;;;28.60;89.29
41866;BME280;27539;43.222;27.558;2022-07-01T07:10:49;100402.00;;;29.06;87.37
41866;BME280;27539;43.222;27.558;2022-07-01T07:13:16;100402.59;;;29.16;82.98
41866;BME280;27539;43.222;27.558;2022-07-01T07:15:41;100374.16;;;29.26;86.71
41866;BME280;27539;43.222;27.558;2022-07-01T07:18:07;100402.66;;;29.62;82.65
41866;BME280;27539;43.222;27.558;2022-07-01T07:20:34;100389.19;;;29.62;83.34
41866;BME280;27539;43.222;27.558;2022-07-01T07:22:59;100400.53;;;30.01;82.65
41866;BME280;27539;43.222;27.558;2022-07-01T07:25:25;100409.47;;;29.73;80.64
41866;BME280;27539;43.222;27.558;2022-07-01T07:27:50;100409.22;;;30.05;83.76
41866;BME280;27539;43.222;27.558;2022-07-01T07:30:16;100409.16;;;30.01;82.51
41866;BME280;27539;43.222;27.558;2022-07-01T07:32:42;100410.09;;;30.09;87.23
41866;BME280;27539;43.222;27.558;2022-07-01T07:35:09;100405.41;;;30.24;84.67
41866;BME280;27539;43.222;27.558;2022-07-01T07:37:34;100401.44;;;30.55;88.06
41866;BME280;27539;43.222;27.558;2022-07-01T07:40:01;100405.66;;;30.65;82.85
41866;BME280;27539;43.222;27.558;2022-07-01T07:42:28;100409.16;;;30.51;76.17
41866;BME280;27539;43.222;27.558;2022-07-01T07:44:54;100410.31;;;30.73;80.62
41866;BME280;27539;43.222;27.558;2022-07-01T07:47:20;100408.63;;;30.72;64.77
41866;BME280;27539;43.222;27.558;2022-07-01T07:49:45;100412.53;;;31.17;76.94
41866;BME280;27539;43.222;27.558;2022-07-01T07:52:11;100412.09;;;31.45;68.41
41866;BME280;27539;43.222;27.558;2022-07-01T07:54:37;100402.34;;;31.57;66.96
41866;BME280;27539;43.222;27.558;2022-07-01T07:57:03;100401.56;;;31.60;69.68
41866;BME280;27539;43.222;27.558;2022-07-01T07:59:29;100407.91;;;31.76;63.07
41866;BME280;27539;43.222;27.558;2022-07-01T08:01:54;100417.41;;;31.80;63.26
41866;BME280;27539;43.222;27.558;2022-07-01T08:04:20;100412.28;;;32.04;63.80
41866;BME280;27539;43.222;27.558;2022-07-01T08:06:45;100412.44;;;32.22;61.46
41866;BME280;27539;43.222;27.558;2022-07-01T08:09:11;100400.03;;;32.14;56.80
41866;BME280;27539;43.222;27.558;2022-07-01T08:11:36;100416.69;;;32.42;54.51
41866;BME280;27539;43.222;27.558;2022-07-01T08:14:02;100420.59;;;32.64;58.61
41866;BME280;27539;43.222;27.558;2022-07-01T08:16:27;100413.81;;;32.42;51.41
41866;BME280;27539;43.222;27.558;2022-07-01T08:18:53;100402.28;;;32.39;51.49
41866;BME280;27539;43.222;27.558;2022-07-01T08:21:19;100414.94;;;32.23;51.13
41866;BME280;27539;43.222;27.558;2022-07-01T08:23:44;100418.03;;;32.52;51.12
41866;BME280;27539;43.222;27.558;2022-07-01T08:26:10;100402.59;;;31.82;51.14
41866;BME280;27539;43.222;27.558;2022-07-01T08:28:38;100416.19;;;32.29;51.88
41866;BME280;27539;43.222;27.558;2022-07-01T08:31:04;100404.44;;;32.49;50.16
41866;BME280;27539;43.222;27.558;2022-07-01T08:33:29;100384.09;;;32.27;49.28
41866;BME280;27539;43.222;27.558;2022-07-01T08:35:55;100404.94;;;32.65;48.09
41866;BME280;27539;43.222;27.558;2022-07-01T08:38:20;100403.56;;;33.04;51.43
41866;BME280;27539;43.222;27.558;2022-07-01T08:40:46;100410.31;;;32.63;49.00
41866;BME280;27539;43.222;27.558;2022-07-01T08:43:11;100388.16;;;32.19;47.90
41866;BME280;27539;43.222;27.558;2022-07-01T08:45:37;100414.69;;;32.46;51.07
41866;BME280;27539;43.222;27.558;2022-07-01T08:48:03;100406.19;;;32.64;51.88
41866;BME280;27539;43.222;27.558;2022-07-01T08:50:39;100411.00;;;33.16;49.83
41866;BME280;27539;43.222;27.558;2022-07-01T08:53:06;100405.72;;;33.35;50.20
41866;BME280;27539;43.222;27.558;2022-07-01T08:55:33;100407.06;;;33.67;50.62
41866;BME280;27539;43.222;27.558;2022-07-01T08:58:19;100408.31;;;33.80;48.07
41866;BME280;27539;43.222;27.558;2022-07-01T09:00:44;100416.91;;;33.55;49.20
41866;BME280;27539;43.222;27.558;2022-07-01T09:03:10;100401.22;;;33.49;49.45
41866;BME280;27539;43.222;27.558;2022-07-01T09:05:36;100401.66;;;33.54;49.50
41866;BME280;27539;43.222;27.558;2022-07-01T09:08:03;100414.13;;;32.85;48.45
41866;BME280;27539;43.222;27.558;2022-07-01T09:10:31;100405.22;;;33.16;52.64
41866;BME280;27539;43.222;27.558;2022-07-01T09:13:07;100398.00;;;33.61;49.70
41866;BME280;27539;43.222;27.558;2022-07-01T09:15:32;100400.78;;;33.36;49.04
41866;BME280;27539;43.222;27.558;2022-07-01T09:18:09;100391.25;;;33.25;49.53
41866;BME280;27539;43.222;27.558;2022-07-01T09:20:37;100405.31;;;33.41;50.67
41866;BME280;27539;43.222;27.558;2022-07-01T09:23:10;100411.03;;;33.30;54.27
41866;BME280;27539;43.222;27.558;2022-07-01T09:25:41;100403.69;;;33.36;50.90
41866;BME280;27539;43.222;27.558;2022-07-01T09:28:19;100410.44;;;32.92;54.08
41866;BME280;27539;43.222;27.558;2022-07-01T09:30:47;100408.38;;;32.92;56.09
41866;BME280;27539;43.222;27.558;2022-07-01T09:33:15;100416.03;;;33.40;53.30
41866;BME280;27539;43.222;27.558;2022-07-01T09:35:42;100409.53;;;33.65;55.29
41866;BME280;27539;43.222;27.558;2022-07-01T09:38:11;100411.63;;;33.89;50.87
41866;BME280;27539;43.222;27.558;2022-07-01T09:40:51;100416.19;;;34.08;53.69
41866;BME280;27539;43.222;27.558;2022-07-01T09:46:07;100394.66;;;33.55;49.68
41866;BME280;27539;43.222;27.558;2022-07-01T09:50:59;100401.59;;;33.37;49.60
41866;BME280;27539;43.222;27.558;2022-07-01T09:53:25;100399.53;;;33.33;52.21
41866;BME280;27539;43.222;27.558;2022-07-01T09:55:51;100388.44;;;33.43;55.37
41866;BME280;27539;43.222;27.558;2022-07-01T09:58:17;100392.25;;;33.72;53.15
41866;BME280;27539;43.222;27.558;2022-07-01T10:00:43;100402.97;;;33.78;52.92
41866;BME280;27539;43.222;27.558;2022-07-01T10:03:09;100402.06;;;33.46;50.84
41866;BME280;27539;43.222;27.558;2022-07-01T10:06:12;100409.94;;;32.72;53.46
41866;BME280;27539;43.222;27.558;2022-07-01T10:14:30;100401.28;;;33.56;55.45
41866;BME280;27539;43.222;27.558;2022-07-01T10:16:56;100394.16;;;33.35;54.95
41866;BME280;27539;43.222;27.558;2022-07-01T10:19:26;100398.31;;;33.45;59.32
41866;BME280;27539;43.222;27.558;2022-07-01T10:21:54;100402.53;;;33.69;54.95
41866;BME280;27539;43.222;27.558;2022-07-01T10:24:22;100394.75;;;33.98;60.67
41866;BME280;27539;43.222;27.558;2022-07-01T10:26:48;100396.81;;;34.23;54.61
41866;BME280;27539;43.222;27.558;2022-07-01T10:29:43;100390.66;;;34.14;54.56
41866;BME280;27539;43.222;27.558;2022-07-01T10:32:25;100384.00;;;33.92;55.03
41866;BME280;27539;43.222;27.558;2022-07-01T10:35:03;100391.88;;;34.13;53.47
41866;BME280;27539;43.222;27.558;2022-07-01T10:37:29;100382.75;;;33.75;57.21
41866;BME280;27539;43.222;27.558;2022-07-01T10:40:00;100362.59;;;34.07;57.45
41866;BME280;27539;43.222;27.558;2022-07-01T10:42:34;100395.56;;;34.35;54.16
41866;BME280;27539;43.222;27.558;2022-07-01T10:45:19;100392.19;;;34.76;55.46
41866;BME280;27539;43.222;27.558;2022-07-01T10:47:44;100386.03;;;34.63;52.38
41866;BME280;27539;43.222;27.558;2022-07-01T10:50:14;100379.03;;;34.53;53.32
41866;BME280;27539;43.222;27.558;2022-07-01T10:53:03;100388.09;;;34.77;54.31
41866;BME280;27539;43.222;27.558;2022-07-01T10:55:37;100379.31;;;34.98;54.44
41866;BME280;27539;43.222;27.558;2022-07-01T10:58:03;100371.06;;;35.04;56.04
41866;BME280;27539;43.222;27.558;2022-07-01T11:00:29;100388.88;;;34.81;50.30
41866;BME280;27539;43.222;27.558;2022-07-01T11:03:05;100368.91;;;35.19;50.71
41866;BME280;27539;43.222;27.558;2022-07-01T11:05:31;100355.34;;;35.09;55.10
41866;BME280;27539;43.222;27.558;2022-07-01T11:07:56;100379.06;;;35.59;53.26
41866;BME280;27539;43.222;27.558;2022-07-01T11:10:22;100369.47;;;34.85;52.13
41866;BME280;27539;43.222;27.558;2022-07-01T11:12:48;100374.84;;;34.83;53.19
41866;BME280;27539;43.222;27.558;2022-07-01T11:15:15;100370.19;;;35.18;51.63
41866;BME280;27539;43.222;27.558;2022-07-01T11:17:45;100373.06;;;35.18;51.35
41866;BME280;27539;43.222;27.558;2022-07-01T11:20:11;100362.31;;;35.18;54.42
41866;BME280;27539;43.222;27.558;2022-07-01T11:22:37;100378.03;;;35.17;53.61
41866;BME280;27539;43.222;27.558;2022-07-01T11:25:05;100371.88;;;35.04;52.70
41866;BME280;27539;43.222;27.558;2022-07-01T11:27:32;100365.19;;;35.29;54.13
41866;BME280;27539;43.222;27.558;2022-07-01T11:30:00;100365.59;;;35.27;54.77
41866;BME280;27539;43.222;27.558;2022-07-01T11:32:28;100365.59;;;35.27;52.13
41866;BME280;27539;43.222;27.558;2022-07-01T11:34:54;100359.03;;;35.20;52.99
41866;BME280;27539;43.222;27.558;2022-07-01T11:37:19;100370.84;;;35.43;51.43
41866;BME280;27539;43.222;27.558;2022-07-01T11:40:08;100366.72;;;35.41;53.46
41866;BME280;27539;43.222;27.558;2022-07-01T11:42:34;100321.81;;;35.29;56.07
41866;BME280;27539;43.222;27.558;2022-07-01T11:45:00;100355.66;;;35.28;56.47
41866;BME280;27539;43.222;27.558;2022-07-01T11:47:27;100368.31;;;35.53;54.34
41866;BME280;27539;43.222;27.558;2022-07-01T11:49:53;100358.47;;;35.43;54.49
41866;BME280;27539;43.222;27.558;2022-07-01T11:52:20;100366.50;;;35.06;52.22
41866;BME280;27539;43.222;27.558;2022-07-01T11:54:48;100353.03;;;34.71;55.81
41866;BME280;27539;43.222;27.558;2022-07-01T11:57:17;100354.66;;;34.69;55.16
41866;BME280;27539;43.222;27.558;2022-07-01T11:59:46;100358.44;;;34.37;57.26
41866;BME280;27539;43.222;27.558;2022-07-01T12:02:13;100357.88;;;34.89;55.36
41866;BME280;27539;43.222;27.558;2022-07-01T12:04:40;100348.47;;;34.70;59.15
41866;BME280;27539;43.222;27.558;2022-07-01T12:07:07;100337.03;;;33.73;57.90
41866;BME280;27539;43.222;27.558;2022-07-01T12:09:33;100357.22;;;34.27;58.78
41866;BME280;27539;43.222;27.558;2022-07-01T12:11:59;100346.84;;;34.69;57.88
41866;BME280;27539;43.222;27.558;2022-07-01T12:14:25;100333.56;;;34.82;57.93
41866;BME280;27539;43.222;27.558;2022-07-01T12:16:53;100355.81;;;34.93;57.80
41866;BME280;27539;43.222;27.558;2022-07-01T12:19:19;100349.56;;;35.12;55.43
41866;BME280;27539;43.222;27.558;2022-07-01T12:21:50;100348.28;;;35.20;55.30
41866;BME280;27539;43.222;27.558;2022-07-01T12:24:17;100334.75;;;34.92;53.29
41866;BME280;27539;43.222;27.558;2022-07-01T12:29:27;100308.88;;;34.67;49.89
41866;BME280;27539;43.222;27.558;2022-07-01T12:32:14;100336.94;;;34.63;55.61
41866;BME280;27539;43.222;27.558;2022-07-01T12:34:47;100335.97;;;35.02;52.04
41866;BME280;27539;43.222;27.558;2022-07-01T12:37:25;100326.44;;;35.09;49.70
41866;BME280;27539;43.222;27.558;2022-07-01T12:39:52;100342.63;;;34.84;50.00
41866;BME280;27539;43.222;27.558;2022-07-01T12:42:35;100330.81;;;33.93;54.44
41866;BME280;27539;43.222;27.558;2022-07-01T12:45:06;100304.03;;;34.17;58.85
41866;BME280;27539;43.222;27.558;2022-07-01T12:47:37;100326.22;;;34.49;56.99
41866;BME280;27539;43.222;27.558;2022-07-01T12:52:36;100343.53;;;34.56;53.88
41866;BME280;27539;43.222;27.558;2022-07-01T12:55:16;100358.38;;;34.69;55.36